| time (UTC) | temp F | wind direction | speed knots | gust knots | rain 1hr in | rain 24hr in | rain mn in | humidity % | barometer mb |
| 20260506013957 | 70 | 111 | 3.5 | 4.3 | 0.00 | 0.00 | 0.00 | 70 | 1015.5 |
| 20260506013456 | 70 | 131 | 3.5 | 5.2 | 0.00 | 0.00 | 0.00 | 70 | 1015.2 |
| 20260506012951 | 70 | 106 | 2.6 | 2.6 | 0.00 | 0.00 | 0.00 | 70 | 1015.3 |
| 20260506012448 | 70 | 137 | 1.7 | 1.7 | 0.00 | 0.00 | 0.00 | 70 | 1015.2 |
| 20260506011945 | 71 | 171 | 4.3 | 7.0 | 0.00 | 0.00 | 0.00 | 69 | 1015.2 |
| 20260506011442 | 71 | 72 | 4.3 | 5.2 | 0.00 | 0.00 | 0.00 | 69 | 1015.2 |
| 20260506010939 | 71 | 135 | 3.5 | 4.3 | 0.00 | 0.00 | 0.00 | 69 | 1015.0 |
| 20260506010438 | 71 | 141 | 4.3 | 5.2 | 0.00 | 0.00 | 0.00 | 68 | 1015.1 |
| 20260506005934 | 72 | 168 | 3.5 | 4.3 | 0.00 | 0.00 | 0.00 | 67 | 1014.7 |
| 20260506005432 | 72 | 135 | 5.2 | 7.0 | 0.00 | 0.00 | 0.00 | 65 | 1014.8 |
| 20260506004927 | 72 | 160 | 0.9 | 1.7 | 0.00 | 0.00 | 0.00 | 64 | 1014.8 |
| 20260506004425 | 73 | 147 | 4.3 | 7.0 | 0.00 | 0.00 | 0.00 | 62 | 1014.4 |
| 20260506003921 | 73 | 137 | 4.3 | 6.1 | 0.00 | 0.00 | 0.00 | 59 | 1014.4 |
| 20260506003418 | 73 | 152 | 1.7 | 1.7 | 0.00 | 0.00 | 0.00 | 58 | 1014.4 |
| 20260506002914 | 73 | 128 | 2.6 | 2.6 | 0.00 | 0.00 | 0.00 | 58 | 1014.1 |
| 20260506002410 | 73 | 141 | 4.3 | 5.2 | 0.00 | 0.00 | 0.00 | 56 | 1014.0 |
| 20260506001905 | 71 | 132 | 0.9 | 0.9 | 0.00 | 0.00 | 0.00 | 55 | 1014.0 |
| 20260506001403 | 73 | 156 | 0.0 | 0.0 | 0.00 | 0.00 | 0.00 | 56 | 1013.7 |
| 20260506000900 | 74 | 158 | 0.0 | 0.0 | 0.00 | 0.00 | 0.00 | 51 | 1013.9 |
| 20260506000358 | 74 | 151 | 0.0 | 0.0 | 0.00 | 0.00 | 0.00 | 50 | 1013.8 |
| 20260505235854 | 74 | 132 | 0.0 | 0.9 | 0.00 | 0.00 | 0.00 | 52 | 1014.1 |
| 20260505235352 | 74 | 192 | 0.9 | 0.9 | 0.00 | 0.00 | 0.00 | 52 | 1014.2 |
| 20260505234848 | 75 | 146 | 0.0 | 0.0 | 0.00 | 0.00 | 0.00 | 52 | 1014.1 |
| 20260505234346 | 75 | 255 | 0.0 | 0.0 | 0.00 | 0.00 | 0.00 | 51 | 1014.0 |
| 20260505233843 | 76 | 246 | 0.0 | 0.0 | 0.00 | 0.00 | 0.00 | 50 | 1013.8 |
| 20260505233341 | 76 | 229 | 0.0 | 0.9 | 0.00 | 0.00 | 0.00 | 49 | 1014.0 |
| 20260505232838 | 77 | 174 | 1.7 | 1.7 | 0.00 | 0.00 | 0.00 | 47 | 1013.9 |
| 20260505232336 | 77 | 119 | 2.6 | 2.6 | 0.00 | 0.00 | 0.00 | 47 | 1014.0 |
| 20260505231832 | 77 | 163 | 2.6 | 2.6 | 0.00 | 0.00 | 0.00 | 45 | 1014.2 |
| 20260505231330 | 78 | 249 | 0.0 | 0.0 | 0.00 | 0.00 | 0.00 | 46 | 1014.1 |
| 20260505230828 | 78 | 213 | 0.9 | 1.7 | 0.00 | 0.00 | 0.00 | 46 | 1014.3 |
| 20260505230325 | 79 | 162 | 2.6 | 2.6 | 0.00 | 0.00 | 0.00 | 45 | 1014.2 |
| 20260505225821 | 79 | 154 | 1.7 | 2.6 | 0.00 | 0.00 | 0.00 | 44 | 1014.3 |
| 20260505225319 | 80 | 143 | 2.6 | 4.3 | 0.00 | 0.00 | 0.00 | 43 | 1014.3 |
| 20260505224813 | 80 | 158 | 5.2 | 6.1 | 0.00 | 0.00 | 0.00 | 42 | 1014.3 |
| 20260505224311 | 80 | 110 | 2.6 | 2.6 | 0.00 | 0.00 | 0.00 | 42 | 1014.3 |
| 20260505223803 | 80 | 197 | 1.7 | 1.7 | 0.00 | 0.00 | 0.00 | 41 | 1014.5 |
| 20260505223300 | 80 | 163 | 2.6 | 4.3 | 0.00 | 0.00 | 0.00 | 42 | 1014.1 |
| 20260505222755 | 81 | 129 | 2.6 | 2.6 | 0.00 | 0.00 | 0.00 | 41 | 1014.4 |
| 20260505222252 | 83 | 183 | 2.6 | 4.3 | 0.00 | 0.00 | 0.00 | 41 | 1014.1 |
| 20260505221749 | 82 | 315 | 0.0 | 0.0 | 0.00 | 0.00 | 0.00 | 40 | 1014.1 |
| 20260505221246 | 82 | 123 | 0.9 | 1.7 | 0.00 | 0.00 | 0.00 | 40 | 1014.1 |
| 20260505220742 | 80 | 189 | 0.9 | 0.9 | 0.00 | 0.00 | 0.00 | 42 | 1014.1 |
| 20260505220240 | 79 | 236 | 1.7 | 2.6 | 0.00 | 0.00 | 0.00 | 42 | 1014.3 |
| 20260505215738 | 80 | 189 | 2.6 | 4.3 | 0.00 | 0.00 | 0.00 | 43 | 1014.4 |
| 20260505215235 | 81 | 319 | 1.7 | 1.7 | 0.00 | 0.00 | 0.00 | 40 | 1014.3 |
| 20260505214733 | 82 | 195 | 2.6 | 2.6 | 0.00 | 0.00 | 0.00 | 41 | 1014.2 |
| 20260505214230 | 82 | 116 | 3.5 | 4.3 | 0.00 | 0.00 | 0.00 | 40 | 1014.2 |
| 20260505213727 | 82 | 160 | 3.5 | 5.2 | 0.00 | 0.00 | 0.00 | 40 | 1014.2 |
| 20260505213224 | 83 | 134 | 3.5 | 4.3 | 0.00 | 0.00 | 0.00 | 41 | 1014.1 |
| 20260505212720 | 83 | 180 | 3.5 | 5.2 | 0.00 | 0.00 | 0.00 | 41 | 1014.1 |
| 20260505212218 | 83 | 126 | 1.7 | 2.6 | 0.00 | 0.00 | 0.00 | 40 | 1014.2 |
| 20260505211715 | 82 | 196 | 3.5 | 4.3 | 0.00 | 0.00 | 0.00 | 40 | 1014.0 |
| 20260505211212 | 83 | 135 | 3.5 | 4.3 | 0.00 | 0.00 | 0.00 | 41 | 1014.1 |
| 20260505210709 | 82 | 171 | 4.3 | 5.2 | 0.00 | 0.00 | 0.00 | 42 | 1014.4 |
| 20260505210205 | 80 | 186 | 2.6 | 2.6 | 0.00 | 0.00 | 0.00 | 42 | 1014.4 |
| 20260505205703 | 80 | 177 | 1.7 | 2.6 | 0.00 | 0.00 | 0.00 | 44 | 1014.5 |
| 20260505205201 | 80 | 138 | 2.6 | 2.6 | 0.00 | 0.00 | 0.00 | 43 | 1014.8 |
| 20260505204656 | 81 | 164 | 2.6 | 2.6 | 0.00 | 0.00 | 0.00 | 41 | 1014.4 |
| 20260505204154 | 80 | 183 | 2.6 | 2.6 | 0.00 | 0.00 | 0.00 | 44 | 1014.8 |
| 20260505203651 | 81 | 165 | 1.7 | 1.7 | 0.00 | 0.00 | 0.00 | 43 | 1014.7 |
| 20260505203143 | 82 | 320 | 2.6 | 2.6 | 0.00 | 0.00 | 0.00 | 39 | 1014.8 |
| 20260505202638 | 81 | 156 | 1.7 | 1.7 | 0.00 | 0.00 | 0.00 | 43 | 1014.6 |
| 20260505202134 | 81 | 119 | 3.5 | 4.3 | 0.00 | 0.00 | 0.00 | 43 | 1014.9 |
| 20260505201631 | 80 | 173 | 2.6 | 2.6 | 0.00 | 0.00 | 0.00 | 44 | 1015.0 |
| 20260505201129 | 81 | 110 | 4.3 | 6.1 | 0.00 | 0.00 | 0.00 | 43 | 1014.8 |
| 20260505200626 | 81 | 64 | 0.9 | 1.7 | 0.00 | 0.00 | 0.00 | 40 | 1015.0 |
| 20260505200123 | 82 | 321 | 0.0 | 0.9 | 0.00 | 0.00 | 0.00 | 40 | 1015.1 |
| 20260505195614 | 81 | 159 | 2.6 | 4.3 | 0.00 | 0.00 | 0.00 | 41 | 1014.9 |
| 20260505195111 | 82 | 148 | 2.6 | 2.6 | 0.00 | 0.00 | 0.00 | 41 | 1015.3 |
| 20260505194603 | 82 | 132 | 6.1 | 7.0 | 0.00 | 0.00 | 0.00 | 39 | 1015.0 |
| 20260505194058 | 81 | 142 | 4.3 | 5.2 | 0.00 | 0.00 | 0.00 | 45 | 1015.1 |
| 20260505193556 | 81 | 107 | 3.5 | 5.2 | 0.00 | 0.00 | 0.00 | 42 | 1015.2 |
| 20260505193052 | 82 | 183 | 1.7 | 4.3 | 0.00 | 0.00 | 0.00 | 40 | 1015.5 |
| 20260505192551 | 83 | 161 | 4.3 | 5.2 | 0.00 | 0.00 | 0.00 | 40 | 1015.3 |
| 20260505192048 | 83 | 148 | 2.6 | 4.3 | 0.00 | 0.00 | 0.00 | 43 | 1015.4 |
| 20260505191546 | 81 | 294 | 0.0 | 0.9 | 0.00 | 0.00 | 0.00 | 43 | 1015.5 |
| 20260505191044 | 82 | 22 | 2.6 | 4.3 | 0.00 | 0.00 | 0.00 | 42 | 1015.6 |
| 20260505190538 | 82 | 100 | 1.7 | 1.7 | 0.00 | 0.00 | 0.00 | 44 | 1015.7 |
| 20260505190035 | 80 | 195 | 1.7 | 1.7 | 0.00 | 0.00 | 0.00 | 41 | 1015.9 |
| 20260505185532 | 80 | 324 | 0.9 | 1.7 | 0.00 | 0.00 | 0.00 | 42 | 1016.0 |
| 20260505185028 | 81 | 156 | 1.7 | 1.7 | 0.00 | 0.00 | 0.00 | 42 | 1016.0 |
| 20260505184525 | 80 | 179 | 3.5 | 5.2 | 0.00 | 0.00 | 0.00 | 44 | 1016.3 |
| 20260505184021 | 80 | 195 | 2.6 | 2.6 | 0.00 | 0.00 | 0.00 | 42 | 1016.1 |
| 20260505183512 | 81 | 121 | 3.5 | 5.2 | 0.00 | 0.00 | 0.00 | 42 | 1016.5 |
| 20260505183009 | 82 | 8 | 0.9 | 1.7 | 0.00 | 0.00 | 0.00 | 42 | 1016.7 |
| 20260505182506 | 81 | 210 | 2.6 | 4.3 | 0.00 | 0.00 | 0.00 | 43 | 1016.8 |
| 20260505182002 | 79 | 323 | 0.9 | 0.9 | 0.00 | 0.00 | 0.00 | 44 | 1016.6 |
| 20260505181453 | 79 | 99 | 4.3 | 6.1 | 0.00 | 0.00 | 0.00 | 44 | 1016.8 |
| 20260505180950 | 80 | 126 | 2.6 | 4.3 | 0.00 | 0.00 | 0.00 | 44 | 1016.9 |
| 20260505180446 | 82 | 164 | 2.6 | 4.3 | 0.00 | 0.00 | 0.00 | 44 | 1016.7 |
| 20260505175944 | 80 | 304 | 0.0 | 0.0 | 0.00 | 0.00 | 0.00 | 44 | 1016.8 |
| 20260505175440 | 82 | 103 | 2.6 | 2.6 | 0.00 | 0.00 | 0.00 | 39 | 1017.0 |
| 20260505174936 | 83 | 302 | 0.0 | 0.0 | 0.00 | 0.00 | 0.00 | 41 | 1016.9 |
| 20260505174433 | 82 | 177 | 1.7 | 2.6 | 0.00 | 0.00 | 0.00 | 44 | 1016.7 |
| 20260505173929 | 81 | 175 | 3.5 | 5.2 | 0.00 | 0.00 | 0.00 | 44 | 1016.7 |
| 20260505173426 | 80 | 84 | 2.6 | 4.3 | 0.00 | 0.00 | 0.00 | 44 | 1016.6 |
| 20260505172923 | 81 | 174 | 4.3 | 6.1 | 0.00 | 0.00 | 0.00 | 44 | 1016.7 |
| 20260505172421 | 80 | 227 | 3.5 | 5.2 | 0.00 | 0.00 | 0.00 | 42 | 1016.7 |
| 20260505171920 | 80 | 144 | 4.3 | 5.2 | 0.00 | 0.00 | 0.00 | 43 | 1016.8 |
| 20260505171417 | 80 | 308 | 0.0 | 0.0 | 0.00 | 0.00 | 0.00 | 45 | 1017.0 |
| 20260505170914 | 80 | 146 | 2.6 | 2.6 | 0.00 | 0.00 | 0.00 | 42 | 1016.8 |
| 20260505170411 | 80 | 160 | 3.5 | 4.3 | 0.00 | 0.00 | 0.00 | 43 | 1016.9 |
| 20260505165907 | 79 | 120 | 1.7 | 2.6 | 0.00 | 0.00 | 0.00 | 43 | 1016.9 |
| 20260505165403 | 79 | 206 | 5.2 | 7.8 | 0.00 | 0.00 | 0.00 | 44 | 1016.9 |
| 20260505164858 | 80 | 156 | 2.6 | 4.3 | 0.00 | 0.00 | 0.00 | 42 | 1017.1 |
| 20260505164355 | 79 | 147 | 2.6 | 2.6 | 0.00 | 0.00 | 0.00 | 43 | 1017.1 |
| 20260505163853 | 80 | 108 | 4.3 | 6.1 | 0.00 | 0.00 | 0.00 | 42 | 1017.4 |
| 20260505163352 | 79 | 130 | 2.6 | 4.3 | 0.00 | 0.00 | 0.00 | 42 | 1017.4 |
| 20260505162850 | 79 | 174 | 6.1 | 7.8 | 0.00 | 0.00 | 0.00 | 43 | 1017.5 |
| 20260505162345 | 79 | 147 | 3.5 | 5.2 | 0.00 | 0.00 | 0.00 | 53 | 1017.3 |
| 20260505161843 | 78 | 176 | 1.7 | 2.6 | 0.00 | 0.00 | 0.00 | 51 | 1017.3 |
| 20260505161339 | 77 | 156 | 0.9 | 0.9 | 0.00 | 0.00 | 0.00 | 52 | 1017.2 |
| 20260505160837 | 78 | 121 | 1.7 | 1.7 | 0.00 | 0.00 | 0.00 | 53 | 1017.3 |
| 20260505160329 | 77 | 114 | 3.5 | 5.2 | 0.00 | 0.00 | 0.00 | 50 | 1017.3 |
| 20260505153302 | 77 | 133 | 3.5 | 4.3 | 0.00 | 0.00 | 0.00 | 60 | 1017.9 |
| 20260505152759 | 76 | 84 | 2.6 | 2.6 | 0.00 | 0.00 | 0.00 | 59 | 1018.0 |
| 20260505152255 | 76 | 112 | 2.6 | 2.6 | 0.00 | 0.00 | 0.00 | 61 | 1017.8 |
| 20260505151749 | 76 | 113 | 3.5 | 4.3 | 0.00 | 0.00 | 0.00 | 62 | 1018.0 |
| 20260505151247 | 75 | 176 | 1.7 | 1.7 | 0.00 | 0.00 | 0.00 | 61 | 1017.8 |
| 20260505150744 | 75 | 112 | 1.7 | 1.7 | 0.00 | 0.00 | 0.00 | 62 | 1017.9 |
| 20260505150241 | 74 | 163 | 2.6 | 2.6 | 0.00 | 0.00 | 0.00 | 64 | 1017.8 |
| 20260505140206 | 69 | 112 | 3.5 | 4.3 | 0.00 | 0.00 | 0.00 | 72 | 1017.5 |
| 20260505130130 | 63 | 172 | 0.9 | 1.7 | 0.00 | 0.00 | 0.00 | 87 | 1017.8 |
| 20260505124619 | 60 | 128 | 0.0 | 0.0 | 0.00 | 0.00 | 0.00 | 91 | 1017.6 |
| 20260505124116 | 59 | 152 | 0.0 | 0.0 | 0.00 | 0.00 | 0.00 | 92 | 1017.7 |
| 20260505123612 | 58 | 140 | 0.0 | 0.0 | 0.00 | 0.00 | 0.00 | 93 | 1017.7 |
| 20260505123108 | 57 | 132 | 0.0 | 0.0 | 0.00 | 0.00 | 0.00 | 94 | 1017.7 |
| 20260505122605 | 57 | 136 | 0.0 | 0.0 | 0.00 | 0.00 | 0.00 | 95 | 1017.7 |
| 20260505122102 | 56 | 268 | 0.0 | 0.0 | 0.00 | 0.00 | 0.00 | 96 | 1017.6 |
| 20260505121553 | 56 | 136 | 0.0 | 0.0 | 0.00 | 0.00 | 0.00 | 98 | 1017.3 |
| 20260505121050 | 55 | 195 | 0.0 | 0.0 | 0.00 | 0.00 | 0.00 | 99 | 1017.2 |
| 20260505120546 | 55 | 141 | 0.0 | 0.0 | 0.00 | 0.00 | 0.00 | 99 | 1017.0 |
| 20260505120042 | 54 | 186 | 0.0 | 0.0 | 0.00 | 0.00 | 0.00 | 99 | 1017.4 |
| 20260505115536 | 53 | 296 | 0.0 | 0.0 | 0.00 | 0.00 | 0.00 | 99 | 1017.3 |
| 20260505115034 | 53 | 303 | 0.0 | 0.0 | 0.00 | 0.00 | 0.00 | 99 | 1017.1 |
| 20260505114531 | 52 | 289 | 0.0 | 0.0 | 0.00 | 0.00 | 0.00 | 99 | 1017.3 |
| 20260505114027 | 52 | 266 | 0.0 | 0.0 | 0.00 | 0.00 | 0.00 | 99 | 1017.2 |
| 20260505113524 | 51 | 265 | 0.0 | 0.0 | 0.00 | 0.00 | 0.00 | 99 | 1017.1 |
| 20260505113020 | 51 | 264 | 0.0 | 0.0 | 0.00 | 0.00 | 0.00 | 99 | 1017.1 |
| 20260505112517 | 51 | 247 | 0.0 | 0.0 | 0.00 | 0.00 | 0.00 | 99 | 1016.8 |
| 20260505112015 | 51 | 284 | 0.0 | 0.0 | 0.00 | 0.00 | 0.00 | 99 | 1016.9 |
| 20260505111508 | 51 | 284 | 0.0 | 0.0 | 0.00 | 0.00 | 0.00 | 99 | 1017.0 |
| 20260505111005 | 51 | 271 | 0.0 | 0.0 | 0.00 | 0.00 | 0.00 | 99 | 1016.9 |
| 20260505110502 | 50 | 308 | 0.0 | 0.0 | 0.00 | 0.00 | 0.00 | 99 | 1016.9 |
| 20260505101933 | 50 | 314 | 0.0 | 0.0 | 0.00 | 0.00 | 0.00 | 99 | 1016.4 |
| 20260505101427 | 50 | 314 | 0.0 | 0.0 | 0.00 | 0.00 | 0.00 | 99 | 1016.6 |
| 20260505100923 | 50 | 305 | 0.0 | 0.0 | 0.00 | 0.00 | 0.00 | 99 | 1016.5 |
| 20260505100420 | 50 | 306 | 0.0 | 0.0 | 0.00 | 0.00 | 0.00 | 99 | 1016.7 |
| 20260505095916 | 50 | 306 | 0.0 | 0.0 | 0.00 | 0.00 | 0.00 | 99 | 1016.5 |
| 20260505095413 | 50 | 305 | 0.0 | 0.0 | 0.00 | 0.00 | 0.00 | 99 | 1016.4 |
| 20260505094909 | 50 | 307 | 0.0 | 0.0 | 0.00 | 0.00 | 0.00 | 99 | 1016.5 |
| 20260505094406 | 50 | 297 | 0.0 | 0.0 | 0.00 | 0.00 | 0.00 | 99 | 1016.7 |
| 20260505093901 | 50 | 309 | 0.0 | 0.0 | 0.00 | 0.00 | 0.00 | 99 | 1016.4 |
| 20260505093359 | 50 | 309 | 0.0 | 0.0 | 0.00 | 0.00 | 0.00 | 99 | 1016.4 |
| 20260505092856 | 51 | 309 | 0.0 | 0.0 | 0.00 | 0.00 | 0.00 | 99 | 1016.6 |
| 20260505092354 | 50 | 309 | 0.0 | 0.0 | 0.00 | 0.00 | 0.00 | 99 | 1016.5 |
| 20260505091851 | 51 | 309 | 0.0 | 0.0 | 0.00 | 0.00 | 0.00 | 99 | 1016.3 |
| 20260505091349 | 51 | 309 | 0.0 | 0.0 | 0.00 | 0.00 | 0.00 | 99 | 1016.5 |
| 20260505090847 | 51 | 309 | 0.0 | 0.0 | 0.00 | 0.00 | 0.00 | 98 | 1016.5 |
| 20260505090345 | 51 | 309 | 0.0 | 0.0 | 0.00 | 0.00 | 0.00 | 98 | 1016.3 |
| 20260505085842 | 51 | 309 | 0.0 | 0.0 | 0.00 | 0.00 | 0.00 | 98 | 1016.2 |
| 20260505085340 | 51 | 309 | 0.0 | 0.0 | 0.00 | 0.00 | 0.00 | 98 | 1016.3 |
| 20260505084837 | 51 | 309 | 0.0 | 0.0 | 0.00 | 0.00 | 0.00 | 98 | 1016.4 |
| 20260505084336 | 51 | 309 | 0.0 | 0.0 | 0.00 | 0.00 | 0.00 | 98 | 1016.2 |
| 20260505083833 | 51 | 309 | 0.0 | 0.0 | 0.00 | 0.00 | 0.00 | 98 | 1016.3 |
| 20260505083330 | 51 | 309 | 0.0 | 0.0 | 0.00 | 0.00 | 0.00 | 97 | 1016.1 |
| 20260505082826 | 51 | 309 | 0.0 | 0.0 | 0.00 | 0.00 | 0.00 | 97 | 1016.1 |
| 20260505082323 | 51 | 309 | 0.0 | 0.0 | 0.00 | 0.00 | 0.00 | 97 | 1016.0 |
| 20260505081819 | 51 | 309 | 0.0 | 0.0 | 0.00 | 0.00 | 0.00 | 97 | 1016.2 |
| 20260505081316 | 51 | 309 | 0.0 | 0.0 | 0.00 | 0.00 | 0.00 | 97 | 1016.2 |
| 20260505080813 | 51 | 309 | 0.0 | 0.0 | 0.00 | 0.00 | 0.00 | 96 | 1016.4 |
| 20260505080309 | 51 | 309 | 0.0 | 0.0 | 0.00 | 0.00 | 0.00 | 96 | 1016.2 |
| 20260505075804 | 52 | 309 | 0.0 | 0.0 | 0.00 | 0.00 | 0.00 | 96 | 1016.1 |
| 20260505075304 | 52 | 309 | 0.0 | 0.0 | 0.00 | 0.00 | 0.00 | 96 | 1016.0 |
| 20260505074759 | 52 | 309 | 0.0 | 0.0 | 0.00 | 0.00 | 0.00 | 96 | 1016.2 |
| 20260505074256 | 52 | 309 | 0.0 | 0.0 | 0.00 | 0.00 | 0.00 | 96 | 1015.9 |
| 20260505073753 | 52 | 309 | 0.0 | 0.0 | 0.00 | 0.00 | 0.00 | 96 | 1016.0 |
| 20260505073251 | 52 | 309 | 0.0 | 0.0 | 0.00 | 0.00 | 0.00 | 95 | 1015.8 |
| 20260505072747 | 52 | 309 | 0.0 | 0.0 | 0.00 | 0.00 | 0.00 | 95 | 1016.0 |
| 20260505072243 | 52 | 309 | 0.0 | 0.0 | 0.00 | 0.00 | 0.00 | 95 | 1016.1 |
| 20260505071739 | 52 | 309 | 0.0 | 0.0 | 0.00 | 0.00 | 0.00 | 94 | 1016.2 |
| 20260505071236 | 52 | 309 | 0.0 | 0.0 | 0.00 | 0.00 | 0.00 | 94 | 1015.9 |
| 20260505070734 | 52 | 309 | 0.0 | 0.0 | 0.00 | 0.00 | 0.00 | 94 | 1016.1 |
| 20260505070230 | 53 | 309 | 0.0 | 0.0 | 0.00 | 0.00 | 0.00 | 94 | 1016.0 |
| 20260505065726 | 53 | 309 | 0.0 | 0.0 | 0.00 | 0.00 | 0.00 | 93 | 1015.8 |
| 20260505065223 | 53 | 309 | 0.0 | 0.0 | 0.00 | 0.00 | 0.00 | 93 | 1015.9 |
| 20260505064720 | 53 | 309 | 0.0 | 0.0 | 0.00 | 0.00 | 0.00 | 92 | 1016.3 |
| 20260505064218 | 53 | 309 | 0.0 | 0.0 | 0.00 | 0.00 | 0.00 | 92 | 1016.0 |
| 20260505063715 | 54 | 309 | 0.0 | 0.0 | 0.00 | 0.00 | 0.00 | 92 | 1016.2 |
| 20260505063211 | 54 | 309 | 0.0 | 0.0 | 0.00 | 0.00 | 0.00 | 91 | 1016.1 |
| 20260505062708 | 54 | 308 | 0.0 | 0.0 | 0.00 | 0.00 | 0.00 | 90 | 1016.0 |
| 20260505062206 | 54 | 309 | 0.0 | 0.0 | 0.00 | 0.00 | 0.00 | 89 | 1016.1 |
| 20260505061702 | 54 | 309 | 0.0 | 0.0 | 0.00 | 0.00 | 0.00 | 88 | 1016.0 |
| 20260505061200 | 54 | 309 | 0.0 | 0.0 | 0.00 | 0.00 | 0.00 | 87 | 1016.3 |
| 20260505060657 | 55 | 309 | 0.0 | 0.0 | 0.00 | 0.00 | 0.00 | 86 | 1016.1 |
| 20260505060154 | 55 | 309 | 0.0 | 0.0 | 0.00 | 0.00 | 0.00 | 85 | 1016.4 |
| 20260505055649 | 56 | 309 | 0.0 | 0.0 | 0.00 | 0.00 | 0.00 | 84 | 1016.1 |
| 20260505055146 | 57 | 309 | 0.0 | 0.0 | 0.00 | 0.00 | 0.00 | 83 | 1016.4 |
| 20260505054643 | 57 | 309 | 0.0 | 0.0 | 0.00 | 0.00 | 0.00 | 81 | 1016.5 |
| 20260505054141 | 58 | 308 | 0.0 | 0.0 | 0.00 | 0.00 | 0.00 | 81 | 1016.4 |
| 20260505053639 | 58 | 66 | 0.0 | 0.9 | 0.00 | 0.00 | 0.00 | 80 | 1016.3 |
| 20260505053135 | 58 | 331 | 0.0 | 0.0 | 0.00 | 0.00 | 0.00 | 79 | 1016.7 |
| 20260505052632 | 59 | 283 | 0.0 | 0.0 | 0.00 | 0.00 | 0.00 | 78 | 1016.6 |
| 20260505052129 | 60 | 176 | 0.9 | 1.7 | 0.00 | 0.00 | 0.00 | 77 | 1016.4 |
| 20260505051626 | 60 | 146 | 0.9 | 1.7 | 0.00 | 0.00 | 0.00 | 77 | 1016.3 |
| 20260505051125 | 60 | 146 | 1.7 | 1.7 | 0.00 | 0.00 | 0.00 | 77 | 1016.5 |
| 20260505050622 | 60 | 168 | 1.7 | 2.6 | 0.00 | 0.00 | 0.00 | 76 | 1016.4 |
| 20260505050120 | 60 | 142 | 1.7 | 1.7 | 0.00 | 0.00 | 0.00 | 75 | 1016.4 |
| 20260505041549 | 61 | 166 | 1.7 | 1.7 | 0.00 | 0.00 | 0.00 | 72 | 1016.7 |
| 20260505041047 | 62 | 152 | 1.7 | 2.6 | 0.00 | 0.00 | 0.00 | 71 | 1016.6 |
| 20260505040544 | 62 | 105 | 2.6 | 2.6 | 0.00 | 0.00 | 0.00 | 71 | 1016.6 |
| 20260505040041 | 62 | 150 | 2.6 | 2.6 | 0.00 | 0.00 | 0.00 | 70 | 1016.7 |
| 20260505035537 | 62 | 155 | 1.7 | 1.7 | 0.00 | 0.00 | 0.00 | 70 | 1016.6 |
| 20260505035034 | 62 | 129 | 1.7 | 1.7 | 0.00 | 0.00 | 0.00 | 70 | 1016.6 |
| 20260505034530 | 62 | 138 | 1.7 | 1.7 | 0.00 | 0.00 | 0.00 | 71 | 1016.5 |
| 20260505034028 | 62 | 134 | 1.7 | 1.7 | 0.00 | 0.00 | 0.00 | 70 | 1016.6 |
| 20260505033525 | 62 | 150 | 1.7 | 1.7 | 0.00 | 0.00 | 0.00 | 70 | 1016.7 |
| 20260505033023 | 62 | 149 | 3.5 | 5.2 | 0.00 | 0.00 | 0.00 | 70 | 1016.7 |
| 20260505032520 | 63 | 168 | 2.6 | 2.6 | 0.00 | 0.00 | 0.00 | 69 | 1016.7 |
| 20260505032016 | 63 | 175 | 2.6 | 2.6 | 0.00 | 0.00 | 0.00 | 68 | 1016.8 |
| 20260505031514 | 63 | 118 | 2.6 | 2.6 | 0.00 | 0.00 | 0.00 | 68 | 1016.9 |
| 20260505031010 | 63 | 133 | 2.6 | 2.6 | 0.00 | 0.00 | 0.00 | 67 | 1016.9 |
| 20260505030507 | 63 | 121 | 0.9 | 1.7 | 0.00 | 0.00 | 0.00 | 69 | 1016.8 |
| 20260505030003 | 63 | 111 | 2.6 | 2.6 | 0.00 | 0.00 | 0.00 | 68 | 1016.8 |
| 20260505025459 | 63 | 170 | 1.7 | 1.7 | 0.00 | 0.00 | 0.00 | 68 | 1017.0 |
| 20260505024958 | 63 | 111 | 0.9 | 1.7 | 0.00 | 0.00 | 0.00 | 69 | 1016.8 |
| 20260505024454 | 64 | 171 | 1.7 | 1.7 | 0.00 | 0.00 | 0.00 | 69 | 1016.8 |
| 20260505023952 | 64 | 119 | 1.7 | 2.6 | 0.00 | 0.00 | 0.00 | 68 | 1016.8 |
| 20260505023449 | 64 | 160 | 0.9 | 1.7 | 0.00 | 0.00 | 0.00 | 68 | 1016.7 |
| 20260505022946 | 64 | 146 | 0.9 | 1.7 | 0.00 | 0.00 | 0.00 | 69 | 1016.6 |
| 20260505022444 | 64 | 127 | 0.9 | 1.7 | 0.00 | 0.00 | 0.00 | 68 | 1016.7 |
| 20260505021941 | 64 | 155 | 2.6 | 4.3 | 0.00 | 0.00 | 0.00 | 69 | 1016.4 |
| 20260505021437 | 64 | 146 | 1.7 | 1.7 | 0.00 | 0.00 | 0.00 | 68 | 1016.5 |
| 20260505020933 | 65 | 136 | 1.7 | 1.7 | 0.00 | 0.00 | 0.00 | 68 | 1016.5 |
| 20260505020428 | 65 | 155 | 2.6 | 2.6 | 0.00 | 0.00 | 0.00 | 68 | 1016.3 |
| 20260505015925 | 65 | 128 | 0.9 | 1.7 | 0.00 | 0.00 | 0.00 | 67 | 1016.6 |
| 20260505015422 | 65 | 145 | 0.9 | 1.7 | 0.00 | 0.00 | 0.00 | 67 | 1016.3 |
| 20260505014920 | 66 | 148 | 2.6 | 2.6 | 0.00 | 0.00 | 0.00 | 66 | 1016.2 |
| 20260505014416 | 66 | 131 | 3.5 | 4.3 | 0.00 | 0.00 | 0.00 | 66 | 1016.1 |